sensor_id;sensor_type;location;lat;lon;timestamp;P1;durP1;ratioP1;P2;durP2;ratioP2
65583;SDS011;62116;43.582;1.470;2022-08-06T00:02:18;6.05;;;1.80;;
65583;SDS011;62116;43.582;1.470;2022-08-06T00:04:48;8.35;;;1.83;;
65583;SDS011;62116;43.582;1.470;2022-08-06T00:07:15;5.35;;;1.75;;
65583;SDS011;62116;43.582;1.470;2022-08-06T00:09:41;6.15;;;1.70;;
65583;SDS011;62116;43.582;1.470;2022-08-06T00:12:07;4.85;;;1.77;;
65583;SDS011;62116;43.582;1.470;2022-08-06T00:14:33;12.05;;;1.90;;
65583;SDS011;62116;43.582;1.470;2022-08-06T00:16:58;6.50;;;1.83;;
65583;SDS011;62116;43.582;1.470;2022-08-06T00:19:24;6.10;;;1.70;;
65583;SDS011;62116;43.582;1.470;2022-08-06T00:21:50;5.80;;;1.88;;
65583;SDS011;62116;43.582;1.470;2022-08-06T00:24:16;8.40;;;1.73;;
65583;SDS011;62116;43.582;1.470;2022-08-06T00:26:41;9.05;;;2.20;;
65583;SDS011;62116;43.582;1.470;2022-08-06T00:29:07;8.45;;;1.80;;
65583;SDS011;62116;43.582;1.470;2022-08-06T00:31:33;7.97;;;2.00;;
65583;SDS011;62116;43.582;1.470;2022-08-06T00:33:59;9.32;;;1.90;;
65583;SDS011;62116;43.582;1.470;2022-08-06T00:36:29;5.25;;;1.63;;
65583;SDS011;62116;43.582;1.470;2022-08-06T00:38:57;6.18;;;1.80;;
65583;SDS011;62116;43.582;1.470;2022-08-06T00:41:24;4.97;;;1.80;;
65583;SDS011;62116;43.582;1.470;2022-08-06T00:43:50;7.28;;;1.80;;
65583;SDS011;62116;43.582;1.470;2022-08-06T00:46:16;8.60;;;2.05;;
65583;SDS011;62116;43.582;1.470;2022-08-06T00:48:41;5.93;;;1.88;;
65583;SDS011;62116;43.582;1.470;2022-08-06T00:51:06;4.57;;;1.65;;
65583;SDS011;62116;43.582;1.470;2022-08-06T00:53:32;5.35;;;1.48;;
65583;SDS011;62116;43.582;1.470;2022-08-06T00:55:57;8.65;;;1.80;;
65583;SDS011;62116;43.582;1.470;2022-08-06T00:58:23;5.65;;;1.77;;
65583;SDS011;62116;43.582;1.470;2022-08-06T01:00:49;5.30;;;1.63;;
65583;SDS011;62116;43.582;1.470;2022-08-06T01:03:14;7.78;;;1.77;;
65583;SDS011;62116;43.582;1.470;2022-08-06T01:05:43;7.60;;;1.63;;
65583;SDS011;62116;43.582;1.470;2022-08-06T01:08:09;6.82;;;1.83;;
65583;SDS011;62116;43.582;1.470;2022-08-06T01:10:35;5.70;;;1.58;;
65583;SDS011;62116;43.582;1.470;2022-08-06T01:13:01;8.00;;;1.80;;
65583;SDS011;62116;43.582;1.470;2022-08-06T01:15:26;8.00;;;1.95;;
65583;SDS011;62116;43.582;1.470;2022-08-06T01:17:54;6.40;;;1.83;;
65583;SDS011;62116;43.582;1.470;2022-08-06T01:20:41;8.05;;;1.80;;
65583;SDS011;62116;43.582;1.470;2022-08-06T01:26:01;4.55;;;1.63;;
65583;SDS011;62116;43.582;1.470;2022-08-06T01:31:58;6.25;;;2.03;;
65583;SDS011;62116;43.582;1.470;2022-08-06T01:34:39;8.10;;;2.33;;
65583;SDS011;62116;43.582;1.470;2022-08-06T01:37:14;7.00;;;3.38;;
65583;SDS011;62116;43.582;1.470;2022-08-06T01:40:02;8.85;;;3.40;;
65583;SDS011;62116;43.582;1.470;2022-08-06T01:42:31;7.35;;;2.90;;
65583;SDS011;62116;43.582;1.470;2022-08-06T01:44:58;6.45;;;2.22;;
65583;SDS011;62116;43.582;1.470;2022-08-06T01:47:27;7.57;;;2.05;;
65583;SDS011;62116;43.582;1.470;2022-08-06T01:49:55;9.43;;;1.80;;
65583;SDS011;62116;43.582;1.470;2022-08-06T01:52:24;8.50;;;2.15;;
65583;SDS011;62116;43.582;1.470;2022-08-06T01:54:50;7.28;;;2.00;;
65583;SDS011;62116;43.582;1.470;2022-08-06T01:57:20;7.05;;;1.80;;
65583;SDS011;62116;43.582;1.470;2022-08-06T01:59:47;5.97;;;1.80;;
65583;SDS011;62116;43.582;1.470;2022-08-06T02:02:17;8.60;;;1.90;;
65583;SDS011;62116;43.582;1.470;2022-08-06T02:04:45;6.67;;;1.93;;
65583;SDS011;62116;43.582;1.470;2022-08-06T02:07:13;10.38;;;2.17;;
65583;SDS011;62116;43.582;1.470;2022-08-06T02:09:41;8.93;;;1.90;;
65583;SDS011;62116;43.582;1.470;2022-08-06T02:12:19;10.07;;;2.10;;
65583;SDS011;62116;43.582;1.470;2022-08-06T02:14:57;7.15;;;1.90;;
65583;SDS011;62116;43.582;1.470;2022-08-06T02:17:27;6.50;;;1.88;;
65583;SDS011;62116;43.582;1.470;2022-08-06T02:19:55;6.22;;;1.80;;
65583;SDS011;62116;43.582;1.470;2022-08-06T02:22:26;10.30;;;2.05;;
65583;SDS011;62116;43.582;1.470;2022-08-06T02:24:54;8.85;;;1.95;;
65583;SDS011;62116;43.582;1.470;2022-08-06T02:27:22;7.47;;;2.05;;
65583;SDS011;62116;43.582;1.470;2022-08-06T02:29:49;8.13;;;1.70;;
65583;SDS011;62116;43.582;1.470;2022-08-06T02:32:19;4.23;;;1.90;;
65583;SDS011;62116;43.582;1.470;2022-08-06T02:34:44;6.72;;;2.40;;
65583;SDS011;62116;43.582;1.470;2022-08-06T02:37:15;6.53;;;2.17;;
65583;SDS011;62116;43.582;1.470;2022-08-06T02:39:46;10.07;;;2.17;;
65583;SDS011;62116;43.582;1.470;2022-08-06T02:42:35;8.43;;;1.85;;
65583;SDS011;62116;43.582;1.470;2022-08-06T02:45:08;8.05;;;1.98;;
65583;SDS011;62116;43.582;1.470;2022-08-06T02:47:45;6.05;;;1.85;;
65583;SDS011;62116;43.582;1.470;2022-08-06T02:50:17;6.85;;;1.90;;
65583;SDS011;62116;43.582;1.470;2022-08-06T02:52:49;6.13;;;1.70;;
65583;SDS011;62116;43.582;1.470;2022-08-06T02:55:22;5.40;;;1.88;;
65583;SDS011;62116;43.582;1.470;2022-08-06T02:57:56;7.88;;;2.20;;
65583;SDS011;62116;43.582;1.470;2022-08-06T03:00:24;5.68;;;1.83;;
65583;SDS011;62116;43.582;1.470;2022-08-06T03:02:53;7.13;;;1.77;;
65583;SDS011;62116;43.582;1.470;2022-08-06T03:05:22;7.35;;;1.85;;
65583;SDS011;62116;43.582;1.470;2022-08-06T03:07:48;6.32;;;1.85;;
65583;SDS011;62116;43.582;1.470;2022-08-06T03:10:21;9.05;;;2.30;;
65583;SDS011;62116;43.582;1.470;2022-08-06T03:12:48;9.10;;;2.10;;
65583;SDS011;62116;43.582;1.470;2022-08-06T03:15:16;6.20;;;1.95;;
65583;SDS011;62116;43.582;1.470;2022-08-06T03:17:44;9.52;;;1.92;;
65583;SDS011;62116;43.582;1.470;2022-08-06T03:20:11;6.78;;;1.80;;
65583;SDS011;62116;43.582;1.470;2022-08-06T03:22:39;4.07;;;1.70;;
65583;SDS011;62116;43.582;1.470;2022-08-06T03:25:07;12.65;;;1.98;;
65583;SDS011;62116;43.582;1.470;2022-08-06T03:27:33;6.93;;;1.90;;
65583;SDS011;62116;43.582;1.470;2022-08-06T03:30:00;6.70;;;1.90;;
65583;SDS011;62116;43.582;1.470;2022-08-06T03:32:25;4.70;;;1.70;;
65583;SDS011;62116;43.582;1.470;2022-08-06T03:34:52;8.32;;;1.85;;
65583;SDS011;62116;43.582;1.470;2022-08-06T03:37:19;8.63;;;1.98;;
65583;SDS011;62116;43.582;1.470;2022-08-06T03:39:45;7.50;;;2.13;;
65583;SDS011;62116;43.582;1.470;2022-08-06T03:42:13;7.38;;;1.98;;
65583;SDS011;62116;43.582;1.470;2022-08-06T03:44:38;6.60;;;1.83;;
65583;SDS011;62116;43.582;1.470;2022-08-06T03:47:13;7.88;;;1.70;;
65583;SDS011;62116;43.582;1.470;2022-08-06T03:49:50;12.35;;;2.10;;
65583;SDS011;62116;43.582;1.470;2022-08-06T03:52:16;9.02;;;1.92;;
65583;SDS011;62116;43.582;1.470;2022-08-06T03:57:17;8.18;;;1.90;;
65583;SDS011;62116;43.582;1.470;2022-08-06T03:59:45;6.22;;;1.73;;
65583;SDS011;62116;43.582;1.470;2022-08-06T04:02:14;7.97;;;1.98;;
65583;SDS011;62116;43.582;1.470;2022-08-06T04:04:40;7.07;;;1.70;;
65583;SDS011;62116;43.582;1.470;2022-08-06T04:07:07;7.68;;;1.88;;
65583;SDS011;62116;43.582;1.470;2022-08-06T04:09:34;8.73;;;1.90;;
65583;SDS011;62116;43.582;1.470;2022-08-06T04:12:00;9.50;;;2.05;;
65583;SDS011;62116;43.582;1.470;2022-08-06T04:14:27;6.68;;;1.90;;
65583;SDS011;62116;43.582;1.470;2022-08-06T04:16:53;6.97;;;1.83;;
65583;SDS011;62116;43.582;1.470;2022-08-06T04:19:19;7.50;;;1.60;;
65583;SDS011;62116;43.582;1.470;2022-08-06T04:21:47;6.43;;;1.60;;
65583;SDS011;62116;43.582;1.470;2022-08-06T04:24:13;6.68;;;1.80;;
65583;SDS011;62116;43.582;1.470;2022-08-06T04:26:39;8.32;;;1.90;;
65583;SDS011;62116;43.582;1.470;2022-08-06T04:29:08;9.15;;;1.70;;
65583;SDS011;62116;43.582;1.470;2022-08-06T04:31:36;7.03;;;1.58;;
65583;SDS011;62116;43.582;1.470;2022-08-06T04:34:02;8.07;;;1.80;;
65583;SDS011;62116;43.582;1.470;2022-08-06T04:36:28;8.32;;;1.90;;
65583;SDS011;62116;43.582;1.470;2022-08-06T04:38:54;5.40;;;1.58;;
65583;SDS011;62116;43.582;1.470;2022-08-06T04:41:20;9.90;;;1.70;;
65583;SDS011;62116;43.582;1.470;2022-08-06T04:43:46;10.20;;;1.77;;
65583;SDS011;62116;43.582;1.470;2022-08-06T04:46:12;6.18;;;1.75;;
65583;SDS011;62116;43.582;1.470;2022-08-06T04:48:37;13.93;;;1.90;;
65583;SDS011;62116;43.582;1.470;2022-08-06T04:51:03;10.27;;;1.90;;
65583;SDS011;62116;43.582;1.470;2022-08-06T04:53:35;9.85;;;1.80;;
65583;SDS011;62116;43.582;1.470;2022-08-06T04:56:05;8.63;;;1.98;;
65583;SDS011;62116;43.582;1.470;2022-08-06T04:58:31;7.13;;;1.90;;
65583;SDS011;62116;43.582;1.470;2022-08-06T05:00:57;8.18;;;1.80;;
65583;SDS011;62116;43.582;1.470;2022-08-06T05:03:23;8.32;;;1.77;;
65583;SDS011;62116;43.582;1.470;2022-08-06T05:05:55;13.05;;;1.67;;
65583;SDS011;62116;43.582;1.470;2022-08-06T05:08:29;10.15;;;1.75;;
65583;SDS011;62116;43.582;1.470;2022-08-06T05:10:56;8.27;;;1.75;;
65583;SDS011;62116;43.582;1.470;2022-08-06T05:13:29;7.03;;;1.95;;
65583;SDS011;62116;43.582;1.470;2022-08-06T05:15:58;10.20;;;1.70;;
65583;SDS011;62116;43.582;1.470;2022-08-06T05:18:34;11.88;;;2.00;;
65583;SDS011;62116;43.582;1.470;2022-08-06T05:21:03;9.73;;;2.00;;
65583;SDS011;62116;43.582;1.470;2022-08-06T05:23:34;6.47;;;1.70;;
65583;SDS011;62116;43.582;1.470;2022-08-06T05:26:02;5.45;;;1.52;;
65583;SDS011;62116;43.582;1.470;2022-08-06T05:28:28;8.02;;;1.95;;
65583;SDS011;62116;43.582;1.470;2022-08-06T05:30:55;9.30;;;1.80;;
65583;SDS011;62116;43.582;1.470;2022-08-06T05:33:21;9.45;;;2.15;;
65583;SDS011;62116;43.582;1.470;2022-08-06T05:35:56;10.55;;;1.70;;
65583;SDS011;62116;43.582;1.470;2022-08-06T05:38:25;9.53;;;1.77;;
65583;SDS011;62116;43.582;1.470;2022-08-06T05:40:52;9.07;;;2.05;;
65583;SDS011;62116;43.582;1.470;2022-08-06T05:43:18;9.18;;;1.90;;
65583;SDS011;62116;43.582;1.470;2022-08-06T05:45:44;11.55;;;1.60;;
65583;SDS011;62116;43.582;1.470;2022-08-06T05:48:11;11.23;;;1.60;;
65583;SDS011;62116;43.582;1.470;2022-08-06T05:50:44;9.85;;;2.00;;
65583;SDS011;62116;43.582;1.470;2022-08-06T05:53:15;11.18;;;1.90;;
65583;SDS011;62116;43.582;1.470;2022-08-06T05:58:30;8.70;;;1.90;;
65583;SDS011;62116;43.582;1.470;2022-08-06T06:01:01;11.13;;;2.03;;
65583;SDS011;62116;43.582;1.470;2022-08-06T06:03:28;8.35;;;1.80;;
65583;SDS011;62116;43.582;1.470;2022-08-06T06:05:58;6.60;;;1.67;;
65583;SDS011;62116;43.582;1.470;2022-08-06T06:08:25;10.77;;;1.90;;
65583;SDS011;62116;43.582;1.470;2022-08-06T06:10:51;7.95;;;1.85;;
65583;SDS011;62116;43.582;1.470;2022-08-06T06:13:18;9.68;;;2.20;;
65583;SDS011;62116;43.582;1.470;2022-08-06T06:15:47;8.23;;;1.80;;
65583;SDS011;62116;43.582;1.470;2022-08-06T06:18:28;9.98;;;1.75;;
65583;SDS011;62116;43.582;1.470;2022-08-06T06:21:10;8.48;;;1.83;;
65583;SDS011;62116;43.582;1.470;2022-08-06T06:23:53;9.85;;;2.00;;
65583;SDS011;62116;43.582;1.470;2022-08-06T06:26:32;9.93;;;1.80;;
65583;SDS011;62116;43.582;1.470;2022-08-06T06:29:20;9.73;;;1.98;;
65583;SDS011;62116;43.582;1.470;2022-08-06T06:32:03;9.18;;;1.80;;
65583;SDS011;62116;43.582;1.470;2022-08-06T06:37:23;11.23;;;2.10;;
65583;SDS011;62116;43.582;1.470;2022-08-06T06:40:13;8.70;;;2.30;;
65583;SDS011;62116;43.582;1.470;2022-08-06T06:43:04;9.70;;;2.20;;
65583;SDS011;62116;43.582;1.470;2022-08-06T06:45:36;8.23;;;2.00;;
65583;SDS011;62116;43.582;1.470;2022-08-06T06:51:33;8.88;;;2.20;;
65583;SDS011;62116;43.582;1.470;2022-08-06T06:54:05;7.57;;;1.98;;
65583;SDS011;62116;43.582;1.470;2022-08-06T06:56:32;10.63;;;2.30;;
65583;SDS011;62116;43.582;1.470;2022-08-06T06:59:02;9.40;;;2.30;;
65583;SDS011;62116;43.582;1.470;2022-08-06T07:01:32;8.20;;;2.00;;
65583;SDS011;62116;43.582;1.470;2022-08-06T07:04:00;9.57;;;2.20;;
65583;SDS011;62116;43.582;1.470;2022-08-06T07:06:27;8.77;;;1.95;;
65583;SDS011;62116;43.582;1.470;2022-08-06T07:08:54;9.82;;;2.33;;
65583;SDS011;62116;43.582;1.470;2022-08-06T07:11:22;7.22;;;2.17;;
65583;SDS011;62116;43.582;1.470;2022-08-06T07:13:50;10.60;;;2.13;;
65583;SDS011;62116;43.582;1.470;2022-08-06T07:16:18;11.07;;;2.30;;
65583;SDS011;62116;43.582;1.470;2022-08-06T07:18:46;11.63;;;2.22;;
65583;SDS011;62116;43.582;1.470;2022-08-06T07:21:13;11.20;;;1.88;;
65583;SDS011;62116;43.582;1.470;2022-08-06T07:23:40;7.63;;;1.90;;
65583;SDS011;62116;43.582;1.470;2022-08-06T07:26:09;9.80;;;2.38;;
65583;SDS011;62116;43.582;1.470;2022-08-06T07:28:37;10.25;;;2.60;;
65583;SDS011;62116;43.582;1.470;2022-08-06T07:31:04;11.95;;;2.22;;
65583;SDS011;62116;43.582;1.470;2022-08-06T07:33:32;11.38;;;2.38;;
65583;SDS011;62116;43.582;1.470;2022-08-06T07:35:58;7.53;;;2.22;;
65583;SDS011;62116;43.582;1.470;2022-08-06T07:38:26;7.00;;;2.05;;
65583;SDS011;62116;43.582;1.470;2022-08-06T07:40:54;12.50;;;2.80;;
65583;SDS011;62116;43.582;1.470;2022-08-06T07:43:27;8.75;;;1.98;;
65583;SDS011;62116;43.582;1.470;2022-08-06T07:45:58;7.63;;;2.00;;
65583;SDS011;62116;43.582;1.470;2022-08-06T07:48:32;5.85;;;1.80;;
65583;SDS011;62116;43.582;1.470;2022-08-06T07:51:04;7.88;;;2.17;;
65583;SDS011;62116;43.582;1.470;2022-08-06T07:53:31;8.02;;;2.00;;
65583;SDS011;62116;43.582;1.470;2022-08-06T07:55:57;7.25;;;2.05;;
65583;SDS011;62116;43.582;1.470;2022-08-06T07:58:24;10.65;;;2.10;;
65583;SDS011;62116;43.582;1.470;2022-08-06T08:00:51;12.00;;;2.25;;
65583;SDS011;62116;43.582;1.470;2022-08-06T08:03:17;9.10;;;1.90;;
65583;SDS011;62116;43.582;1.470;2022-08-06T08:06:02;7.28;;;2.00;;
65583;SDS011;62116;43.582;1.470;2022-08-06T08:08:46;12.93;;;2.50;;
65583;SDS011;62116;43.582;1.470;2022-08-06T08:11:17;11.38;;;2.30;;
65583;SDS011;62116;43.582;1.470;2022-08-06T08:13:44;7.93;;;2.13;;
65583;SDS011;62116;43.582;1.470;2022-08-06T08:16:11;9.00;;;1.77;;
65583;SDS011;62116;43.582;1.470;2022-08-06T08:18:39;12.05;;;1.90;;
65583;SDS011;62116;43.582;1.470;2022-08-06T08:21:05;9.18;;;2.08;;
65583;SDS011;62116;43.582;1.470;2022-08-06T08:23:31;9.55;;;2.22;;
65583;SDS011;62116;43.582;1.470;2022-08-06T08:25:59;7.43;;;1.98;;
65583;SDS011;62116;43.582;1.470;2022-08-06T08:28:26;7.90;;;2.15;;
65583;SDS011;62116;43.582;1.470;2022-08-06T08:30:52;9.48;;;2.08;;
65583;SDS011;62116;43.582;1.470;2022-08-06T08:33:17;10.27;;;1.95;;
65583;SDS011;62116;43.582;1.470;2022-08-06T08:35:44;7.20;;;2.05;;
65583;SDS011;62116;43.582;1.470;2022-08-06T08:38:10;12.20;;;2.30;;
65583;SDS011;62116;43.582;1.470;2022-08-06T08:40:35;10.60;;;2.10;;
65583;SDS011;62116;43.582;1.470;2022-08-06T08:43:01;8.38;;;2.00;;
65583;SDS011;62116;43.582;1.470;2022-08-06T08:45:28;7.10;;;1.90;;
65583;SDS011;62116;43.582;1.470;2022-08-06T08:47:53;6.70;;;2.10;;
65583;SDS011;62116;43.582;1.470;2022-08-06T08:50:22;7.57;;;2.10;;
65583;SDS011;62116;43.582;1.470;2022-08-06T08:52:51;6.55;;;1.95;;
65583;SDS011;62116;43.582;1.470;2022-08-06T08:55:21;7.97;;;2.20;;
65583;SDS011;62116;43.582;1.470;2022-08-06T08:57:50;8.07;;;1.98;;
65583;SDS011;62116;43.582;1.470;2022-08-06T09:00:17;8.45;;;2.08;;
65583;SDS011;62116;43.582;1.470;2022-08-06T09:02:44;9.50;;;2.10;;
65583;SDS011;62116;43.582;1.470;2022-08-06T09:05:10;12.30;;;2.22;;
65583;SDS011;62116;43.582;1.470;2022-08-06T09:07:36;13.48;;;2.00;;
65583;SDS011;62116;43.582;1.470;2022-08-06T09:10:05;7.35;;;2.00;;
65583;SDS011;62116;43.582;1.470;2022-08-06T09:12:32;6.38;;;2.20;;
65583;SDS011;62116;43.582;1.470;2022-08-06T09:14:58;9.77;;;1.95;;
65583;SDS011;62116;43.582;1.470;2022-08-06T09:17:24;9.35;;;2.30;;
65583;SDS011;62116;43.582;1.470;2022-08-06T09:19:50;8.13;;;2.05;;
65583;SDS011;62116;43.582;1.470;2022-08-06T09:22:17;12.07;;;2.30;;
65583;SDS011;62116;43.582;1.470;2022-08-06T09:24:42;7.15;;;2.20;;
65583;SDS011;62116;43.582;1.470;2022-08-06T09:27:12;6.05;;;2.25;;
65583;SDS011;62116;43.582;1.470;2022-08-06T09:29:47;7.75;;;2.22;;
65583;SDS011;62116;43.582;1.470;2022-08-06T09:32:17;7.65;;;2.20;;
65583;SDS011;62116;43.582;1.470;2022-08-06T09:35:17;6.90;;;2.05;;
65583;SDS011;62116;43.582;1.470;2022-08-06T09:37:44;7.25;;;2.17;;
65583;SDS011;62116;43.582;1.470;2022-08-06T09:40:11;8.48;;;2.08;;
65583;SDS011;62116;43.582;1.470;2022-08-06T09:42:39;7.97;;;2.10;;
65583;SDS011;62116;43.582;1.470;2022-08-06T09:45:13;6.53;;;2.05;;
65583;SDS011;62116;43.582;1.470;2022-08-06T09:47:40;8.02;;;2.20;;
65583;SDS011;62116;43.582;1.470;2022-08-06T09:50:06;11.20;;;2.28;;
65583;SDS011;62116;43.582;1.470;2022-08-06T09:52:32;8.13;;;2.00;;
65583;SDS011;62116;43.582;1.470;2022-08-06T09:54:58;11.38;;;2.42;;
65583;SDS011;62116;43.582;1.470;2022-08-06T09:57:24;9.45;;;2.30;;
65583;SDS011;62116;43.582;1.470;2022-08-06T09:59:51;6.65;;;2.03;;
65583;SDS011;62116;43.582;1.470;2022-08-06T10:02:18;10.55;;;2.38;;
65583;SDS011;62116;43.582;1.470;2022-08-06T10:04:45;11.73;;;2.20;;
65583;SDS011;62116;43.582;1.470;2022-08-06T10:07:13;10.52;;;2.40;;
65583;SDS011;62116;43.582;1.470;2022-08-06T10:09:53;8.27;;;2.20;;
65583;SDS011;62116;43.582;1.470;2022-08-06T10:12:22;8.95;;;2.20;;
65583;SDS011;62116;43.582;1.470;2022-08-06T10:14:49;8.85;;;2.35;;
65583;SDS011;62116;43.582;1.470;2022-08-06T10:17:16;7.70;;;2.30;;
65583;SDS011;62116;43.582;1.470;2022-08-06T10:20:25;12.85;;;2.38;;
65583;SDS011;62116;43.582;1.470;2022-08-06T10:22:58;5.22;;;2.00;;
65583;SDS011;62116;43.582;1.470;2022-08-06T10:25:24;8.40;;;2.22;;
65583;SDS011;62116;43.582;1.470;2022-08-06T10:27:54;6.65;;;2.28;;
65583;SDS011;62116;43.582;1.470;2022-08-06T10:30:20;9.27;;;2.10;;
65583;SDS011;62116;43.582;1.470;2022-08-06T10:32:47;7.72;;;2.47;;
65583;SDS011;62116;43.582;1.470;2022-08-06T10:35:17;8.07;;;2.47;;
65583;SDS011;62116;43.582;1.470;2022-08-06T10:40:14;6.35;;;1.92;;
65583;SDS011;62116;43.582;1.470;2022-08-06T10:42:40;10.77;;;2.30;;
65583;SDS011;62116;43.582;1.470;2022-08-06T10:45:09;9.63;;;2.40;;
65583;SDS011;62116;43.582;1.470;2022-08-06T10:47:36;8.93;;;2.28;;
65583;SDS011;62116;43.582;1.470;2022-08-06T10:50:03;6.97;;;2.10;;
65583;SDS011;62116;43.582;1.470;2022-08-06T10:52:30;6.97;;;2.58;;
65583;SDS011;62116;43.582;1.470;2022-08-06T10:54:56;7.07;;;2.25;;
65583;SDS011;62116;43.582;1.470;2022-08-06T10:57:24;6.13;;;2.28;;
65583;SDS011;62116;43.582;1.470;2022-08-06T10:59:52;5.65;;;2.25;;
65583;SDS011;62116;43.582;1.470;2022-08-06T11:15:39;7.63;;;2.20;;
65583;SDS011;62116;43.582;1.470;2022-08-06T11:18:08;4.63;;;2.05;;
65583;SDS011;62116;43.582;1.470;2022-08-06T11:20:37;5.90;;;2.40;;
65583;SDS011;62116;43.582;1.470;2022-08-06T11:25:43;6.70;;;2.33;;
65583;SDS011;62116;43.582;1.470;2022-08-06T11:28:11;6.13;;;2.47;;
65583;SDS011;62116;43.582;1.470;2022-08-06T11:30:48;6.63;;;2.40;;
65583;SDS011;62116;43.582;1.470;2022-08-06T11:33:17;6.05;;;2.13;;
65583;SDS011;62116;43.582;1.470;2022-08-06T11:35:51;10.23;;;2.30;;
65583;SDS011;62116;43.582;1.470;2022-08-06T11:38:56;5.45;;;2.17;;
65583;SDS011;62116;43.582;1.470;2022-08-06T11:41:11;5.65;;;2.30;;
65583;SDS011;62116;43.582;1.470;2022-08-06T11:46:26;3.95;;;1.95;;
65583;SDS011;62116;43.582;1.470;2022-08-06T11:51:36;6.40;;;2.35;;
65583;SDS011;62116;43.582;1.470;2022-08-06T11:54:13;6.57;;;2.50;;
65583;SDS011;62116;43.582;1.470;2022-08-06T12:01:58;7.35;;;2.25;;
65583;SDS011;62116;43.582;1.470;2022-08-06T12:07:17;5.03;;;2.08;;
65583;SDS011;62116;43.582;1.470;2022-08-06T12:09:46;8.15;;;2.20;;
65583;SDS011;62116;43.582;1.470;2022-08-06T12:23:15;9.98;;;2.50;;
65583;SDS011;62116;43.582;1.470;2022-08-06T12:25:46;6.70;;;2.50;;
65583;SDS011;62116;43.582;1.470;2022-08-06T12:28:16;7.13;;;2.50;;
65583;SDS011;62116;43.582;1.470;2022-08-06T12:30:43;8.15;;;2.42;;
65583;SDS011;62116;43.582;1.470;2022-08-06T12:33:09;6.25;;;2.38;;
65583;SDS011;62116;43.582;1.470;2022-08-06T12:35:35;6.80;;;2.33;;
65583;SDS011;62116;43.582;1.470;2022-08-06T12:38:22;6.13;;;2.22;;
65583;SDS011;62116;43.582;1.470;2022-08-06T12:41:04;6.85;;;2.35;;
65583;SDS011;62116;43.582;1.470;2022-08-06T12:43:34;6.57;;;2.45;;
65583;SDS011;62116;43.582;1.470;2022-08-06T12:46:04;6.40;;;2.50;;
65583;SDS011;62116;43.582;1.470;2022-08-06T12:48:31;12.15;;;2.55;;
65583;SDS011;62116;43.582;1.470;2022-08-06T12:51:02;7.57;;;2.10;;
65583;SDS011;62116;43.582;1.470;2022-08-06T12:53:30;5.55;;;2.28;;
65583;SDS011;62116;43.582;1.470;2022-08-06T12:55:56;6.95;;;2.40;;
65583;SDS011;62116;43.582;1.470;2022-08-06T12:58:23;6.50;;;2.35;;
65583;SDS011;62116;43.582;1.470;2022-08-06T13:00:49;7.38;;;2.47;;
65583;SDS011;62116;43.582;1.470;2022-08-06T13:03:18;5.78;;;2.40;;
65583;SDS011;62116;43.582;1.470;2022-08-06T13:05:45;5.32;;;2.28;;
65583;SDS011;62116;43.582;1.470;2022-08-06T13:08:12;6.85;;;2.42;;
65583;SDS011;62116;43.582;1.470;2022-08-06T13:10:38;7.00;;;2.40;;
65583;SDS011;62116;43.582;1.470;2022-08-06T13:13:04;7.25;;;2.42;;
65583;SDS011;62116;43.582;1.470;2022-08-06T13:15:35;5.65;;;2.40;;
65583;SDS011;62116;43.582;1.470;2022-08-06T13:18:09;4.63;;;2.40;;
65583;SDS011;62116;43.582;1.470;2022-08-06T13:20:43;9.10;;;2.30;;
65583;SDS011;62116;43.582;1.470;2022-08-06T13:23:11;6.05;;;2.50;;
65583;SDS011;62116;43.582;1.470;2022-08-06T13:28:12;7.20;;;2.45;;
65583;SDS011;62116;43.582;1.470;2022-08-06T13:30:40;5.72;;;2.50;;
65583;SDS011;62116;43.582;1.470;2022-08-06T13:33:25;7.82;;;2.55;;
65583;SDS011;62116;43.582;1.470;2022-08-06T13:35:51;6.70;;;2.30;;
65583;SDS011;62116;43.582;1.470;2022-08-06T13:38:27;4.90;;;2.30;;
65583;SDS011;62116;43.582;1.470;2022-08-06T13:40:54;9.25;;;2.72;;
65583;SDS011;62116;43.582;1.470;2022-08-06T13:43:20;5.20;;;2.50;;
65583;SDS011;62116;43.582;1.470;2022-08-06T13:45:46;5.57;;;2.08;;
65583;SDS011;62116;43.582;1.470;2022-08-06T13:48:12;8.63;;;2.30;;
65583;SDS011;62116;43.582;1.470;2022-08-06T13:50:42;8.05;;;2.45;;
65583;SDS011;62116;43.582;1.470;2022-08-06T13:55:35;4.53;;;2.08;;
65583;SDS011;62116;43.582;1.470;2022-08-06T13:58:02;10.15;;;2.67;;
65583;SDS011;62116;43.582;1.470;2022-08-06T14:00:28;6.57;;;2.47;;
65583;SDS011;62116;43.582;1.470;2022-08-06T14:02:54;6.70;;;2.50;;
65583;SDS011;62116;43.582;1.470;2022-08-06T14:05:20;7.05;;;2.58;;
65583;SDS011;62116;43.582;1.470;2022-08-06T14:07:46;6.50;;;2.67;;
65583;SDS011;62116;43.582;1.470;2022-08-06T14:10:12;4.97;;;2.38;;
65583;SDS011;62116;43.582;1.470;2022-08-06T14:12:37;8.60;;;2.38;;
65583;SDS011;62116;43.582;1.470;2022-08-06T14:15:03;5.60;;;2.53;;
65583;SDS011;62116;43.582;1.470;2022-08-06T14:17:29;7.10;;;2.70;;
65583;SDS011;62116;43.582;1.470;2022-08-06T14:19:55;5.70;;;2.17;;
65583;SDS011;62116;43.582;1.470;2022-08-06T14:22:20;5.97;;;2.38;;
65583;SDS011;62116;43.582;1.470;2022-08-06T14:24:45;9.10;;;2.60;;
65583;SDS011;62116;43.582;1.470;2022-08-06T14:27:11;6.30;;;2.47;;
65583;SDS011;62116;43.582;1.470;2022-08-06T14:29:37;6.65;;;2.53;;
65583;SDS011;62116;43.582;1.470;2022-08-06T14:32:03;7.88;;;2.40;;
65583;SDS011;62116;43.582;1.470;2022-08-06T14:34:29;6.50;;;2.30;;
65583;SDS011;62116;43.582;1.470;2022-08-06T14:36:55;6.18;;;2.30;;
65583;SDS011;62116;43.582;1.470;2022-08-06T14:39:21;5.60;;;2.33;;
65583;SDS011;62116;43.582;1.470;2022-08-06T14:41:46;6.03;;;2.30;;
65583;SDS011;62116;43.582;1.470;2022-08-06T14:44:30;7.25;;;2.70;;
65583;SDS011;62116;43.582;1.470;2022-08-06T14:47:14;7.32;;;2.55;;
65583;SDS011;62116;43.582;1.470;2022-08-06T14:49:41;8.23;;;2.17;;
65583;SDS011;62116;43.582;1.470;2022-08-06T14:52:07;6.32;;;2.50;;
65583;SDS011;62116;43.582;1.470;2022-08-06T14:54:33;6.57;;;2.30;;
65583;SDS011;62116;43.582;1.470;2022-08-06T14:57:00;5.47;;;2.60;;
65583;SDS011;62116;43.582;1.470;2022-08-06T14:59:27;8.52;;;2.55;;
65583;SDS011;62116;43.582;1.470;2022-08-06T15:01:53;9.68;;;2.50;;
65583;SDS011;62116;43.582;1.470;2022-08-06T15:04:19;4.32;;;2.40;;
65583;SDS011;62116;43.582;1.470;2022-08-06T15:06:45;5.28;;;2.47;;
65583;SDS011;62116;43.582;1.470;2022-08-06T15:09:11;7.47;;;2.55;;
65583;SDS011;62116;43.582;1.470;2022-08-06T15:11:37;9.93;;;2.80;;
65583;SDS011;62116;43.582;1.470;2022-08-06T15:14:02;6.13;;;2.80;;
65583;SDS011;62116;43.582;1.470;2022-08-06T15:16:29;6.30;;;2.50;;
65583;SDS011;62116;43.582;1.470;2022-08-06T15:18:54;7.55;;;2.80;;
65583;SDS011;62116;43.582;1.470;2022-08-06T15:21:20;7.68;;;2.72;;
65583;SDS011;62116;43.582;1.470;2022-08-06T15:23:45;8.27;;;2.50;;
65583;SDS011;62116;43.582;1.470;2022-08-06T15:26:11;6.85;;;2.35;;
65583;SDS011;62116;43.582;1.470;2022-08-06T15:28:37;7.18;;;2.60;;
65583;SDS011;62116;43.582;1.470;2022-08-06T15:31:02;9.40;;;2.33;;
65583;SDS011;62116;43.582;1.470;2022-08-06T15:33:28;7.75;;;2.50;;
65583;SDS011;62116;43.582;1.470;2022-08-06T15:35:54;6.10;;;2.67;;
65583;SDS011;62116;43.582;1.470;2022-08-06T15:38:20;5.10;;;2.50;;
65583;SDS011;62116;43.582;1.470;2022-08-06T15:40:46;10.05;;;2.47;;
65583;SDS011;62116;43.582;1.470;2022-08-06T15:43:11;7.95;;;2.90;;
65583;SDS011;62116;43.582;1.470;2022-08-06T15:45:37;5.00;;;2.30;;
65583;SDS011;62116;43.582;1.470;2022-08-06T15:48:02;6.55;;;2.58;;
65583;SDS011;62116;43.582;1.470;2022-08-06T15:50:28;6.47;;;2.50;;
65583;SDS011;62116;43.582;1.470;2022-08-06T15:52:53;4.88;;;2.30;;
65583;SDS011;62116;43.582;1.470;2022-08-06T15:55:19;4.47;;;2.50;;
65583;SDS011;62116;43.582;1.470;2022-08-06T15:57:45;5.70;;;2.67;;
65583;SDS011;62116;43.582;1.470;2022-08-06T16:00:11;4.22;;;2.53;;
65583;SDS011;62116;43.582;1.470;2022-08-06T16:02:37;7.32;;;2.78;;